Time;durP1;ratioP1;P1;durP2;ratioP2;P2;SDS_P1;SDS_P2;PMS_P1;PMS_P2;Temp;Humidity;BMP_temperature;BMP_pressure;BME280_temperature;BME280_humidity;BME280_pressure;Samples;Min_cycle;Max_cycle;Signal;HPM_P1;HPM_P2
2020/12/01 00:02:39;;;;;;;7.10;3.72;;;;;;;3.98;60.73;100892.00;8019409;28;20400;-62
2020/12/01 00:06:31;;;;;;;4.00;2.97;;;;;;;4.01;61.01;100885.81;8019149;28;20036;-61
2020/12/01 00:10:22;;;;;;;4.72;3.60;;;;;;;4.03;60.97;100879.63;8019147;28;20551;-62
2020/12/01 00:14:12;;;;;;;5.25;2.95;;;;;;;4.06;61.35;100876.09;8018454;28;20044;-61
2020/12/01 00:18:03;;;;;;;4.93;3.35;;;;;;;4.10;61.14;100877.66;8018795;28;20052;-61
2020/12/01 00:21:53;;;;;;;3.65;2.95;;;;;;;4.11;61.31;100874.16;8006762;28;20037;-62
2020/12/01 00:25:44;;;;;;;5.13;3.15;;;;;;;4.12;61.10;100883.63;7970864;28;20587;-62
2020/12/01 00:29:35;;;;;;;3.90;2.88;;;;;;;4.14;61.03;100879.22;8005147;28;20072;-63
2020/12/01 00:33:26;;;;;;;5.10;3.45;;;;;;;4.16;61.02;100867.84;7989286;28;20037;-62
2020/12/01 00:37:16;;;;;;;6.25;3.45;;;;;;;4.19;61.10;100867.72;7990812;28;20061;-62
2020/12/01 00:41:07;;;;;;;5.28;3.35;;;;;;;4.21;61.24;100870.28;8010911;28;20051;-62
2020/12/01 00:44:58;;;;;;;3.90;2.90;;;;;;;4.22;61.00;100879.78;7976711;28;20028;-62
2020/12/01 00:48:49;;;;;;;4.10;3.28;;;;;;;4.21;60.95;100865.94;8010591;28;20029;-62
2020/12/01 00:52:43;;;;;;;4.28;2.83;;;;;;;4.24;61.30;100862.34;7977185;28;20123;-62
2020/12/01 00:56:34;;;;;;;4.25;3.33;;;;;;;4.26;61.29;100855.34;7992547;28;20066;-62
2020/12/01 01:00:27;;;;;;;4.18;3.00;;;;;;;4.25;60.70;100856.25;7975822;28;20390;-62
2020/12/01 01:04:47;;;;;;;4.13;2.63;;;;;;;4.26;61.12;100837.13;7983440;28;20076;-62
2020/12/01 01:08:39;;;;;;;4.38;3.08;;;;;;;4.28;61.12;100843.97;7991738;28;20041;-61
2020/12/01 01:12:29;;;;;;;5.63;3.53;;;;;;;4.30;61.18;100836.09;7991907;28;20036;-62
2020/12/01 01:16:22;;;;;;;4.72;3.38;;;;;;;4.34;61.40;100837.69;7991753;28;20043;-62
2020/12/01 01:20:13;;;;;;;4.47;3.08;;;;;;;4.37;61.18;100826.28;8007569;28;20447;-62
2020/12/01 01:24:04;;;;;;;6.78;4.10;;;;;;;4.37;61.27;100816.75;8041168;28;20581;-62
2020/12/01 01:27:54;;;;;;;6.57;3.92;;;;;;;4.36;61.10;100825.44;8022845;28;20036;-62
2020/12/01 01:31:45;;;;;;;6.95;4.25;;;;;;;4.39;61.32;100825.34;8023115;28;20036;-62
2020/12/01 01:35:37;;;;;;;8.00;4.57;;;;;;;4.40;61.36;100824.41;8006007;28;20037;-62
2020/12/01 01:39:28;;;;;;;5.85;4.30;;;;;;;4.40;61.37;100816.59;8022789;28;20044;-62
2020/12/01 01:43:18;;;;;;;11.25;4.75;;;;;;;4.41;61.36;100830.47;8040598;28;20093;-61
2020/12/01 01:47:25;;;;;;;7.38;4.40;;;;;;;4.41;61.26;100826.09;8039526;28;20489;-61
2020/12/01 01:51:18;;;;;;;6.35;4.38;;;;;;;4.42;61.16;100829.56;8022910;28;20401;-62
2020/12/01 01:55:16;;;;;;;8.43;4.60;;;;;;;4.43;61.67;100826.91;8022308;28;20396;-62
2020/12/01 01:59:07;;;;;;;11.05;5.05;;;;;;;4.43;61.26;100820.84;8022009;28;20044;-61
2020/12/01 02:02:58;;;;;;;7.20;4.40;;;;;;;4.43;61.28;100818.25;8022402;28;20031;-62
2020/12/01 02:06:59;;;;;;;6.85;4.65;;;;;;;4.47;61.48;100819.81;8021547;28;20040;-62
2020/12/01 02:10:51;;;;;;;6.10;4.32;;;;;;;4.47;61.51;100810.25;8021644;28;20037;-62
2020/12/01 02:14:46;;;;;;;7.13;4.57;;;;;;;4.49;61.46;100812.78;8039361;28;20051;-62
2020/12/01 02:18:37;;;;;;;6.82;4.78;;;;;;;4.52;61.45;100810.06;8018323;28;20059;-62
2020/12/01 02:22:28;;;;;;;8.75;4.72;;;;;;;4.53;61.40;100807.38;8007997;28;20272;-62
2020/12/01 02:26:18;;;;;;;6.93;4.78;;;;;;;4.54;61.51;100803.03;7973948;28;20397;-62
2020/12/01 02:30:11;;;;;;;6.40;4.47;;;;;;;4.55;61.48;100807.34;8007720;28;20055;-62
2020/12/01 02:34:08;;;;;;;9.55;4.90;;;;;;;4.57;61.50;100798.53;7994859;28;20041;-61
2020/12/01 02:37:58;;;;;;;8.75;4.60;;;;;;;4.59;61.47;100796.72;8020553;28;20097;-62
2020/12/01 02:41:51;;;;;;;7.53;4.75;;;;;;;4.60;61.55;100793.22;8020728;28;20037;-62
2020/12/01 02:45:42;;;;;;;6.88;4.38;;;;;;;4.62;61.55;100783.59;8004260;28;20116;-61
2020/12/01 02:49:33;;;;;;;5.95;4.50;;;;;;;4.65;61.58;100780.84;8038373;28;20037;-62
2020/12/01 02:53:23;;;;;;;6.65;4.63;;;;;;;4.67;61.68;100776.44;8020863;28;20037;-62
2020/12/01 02:57:14;;;;;;;8.80;4.97;;;;;;;4.70;61.74;100773.69;8004048;28;20066;-62
2020/12/01 03:01:05;;;;;;;7.63;4.43;;;;;;;4.72;61.70;100773.63;8019520;28;20044;-61
2020/12/01 03:04:55;;;;;;;6.40;3.95;;;;;;;4.75;61.70;100776.09;8020037;28;20033;-62
2020/12/01 03:08:47;;;;;;;4.40;3.28;;;;;;;4.76;61.61;100782.16;8038102;28;20048;-61
2020/12/01 03:12:38;;;;;;;5.03;3.40;;;;;;;4.79;61.57;100774.19;8020095;28;20033;-63
2020/12/01 03:16:29;;;;;;;5.28;3.38;;;;;;;4.83;61.69;100770.56;8020029;28;20037;-62
2020/12/01 03:20:19;;;;;;;5.63;3.45;;;;;;;4.85;61.63;100780.00;8003290;28;20566;-62
2020/12/01 03:24:10;;;;;;;3.78;2.60;;;;;;;4.85;61.62;100773.94;7988112;28;20095;-62
2020/12/01 03:28:00;;;;;;;5.13;2.58;;;;;;;4.87;62.28;100779.91;7987993;28;20086;-63
2020/12/01 03:31:51;;;;;;;4.15;2.05;;;;;;;4.89;61.89;100778.09;7987629;28;20086;-62
2020/12/01 03:35:42;;;;;;;2.97;1.83;;;;;;;4.92;61.87;100786.63;8005656;28;20599;-63
2020/12/01 03:39:33;;;;;;;2.75;1.63;;;;;;;4.94;61.98;100786.56;8005673;28;20037;-63
2020/12/01 03:43:23;;;;;;;2.55;1.40;;;;;;;4.94;61.85;100782.19;7987171;28;20028;-62
2020/12/01 03:47:14;;;;;;;2.60;1.48;;;;;;;4.93;62.13;100774.47;7987268;28;20131;-62
2020/12/01 03:51:05;;;;;;;3.13;1.40;;;;;;;4.98;61.86;100778.53;8005861;28;20047;-62
2020/12/01 03:54:55;;;;;;;2.13;1.10;;;;;;;4.98;62.17;100778.53;8005493;28;20497;-62
2020/12/01 03:58:47;;;;;;;6.05;1.33;;;;;;;5.00;61.94;100786.28;8005230;28;20032;-62
2020/12/01 04:02:37;;;;;;;4.30;1.40;;;;;;;5.02;61.85;100784.47;7987563;28;20033;-62
2020/12/01 04:06:28;;;;;;;1.58;1.02;;;;;;;5.03;62.02;100783.53;8005358;28;20033;-62
2020/12/01 04:10:20;;;;;;;2.78;0.95;;;;;;;5.05;62.00;100790.38;8008150;28;20794;-62
2020/12/01 04:14:11;;;;;;;5.05;1.42;;;;;;;5.08;62.00;100794.59;7993850;28;20037;-62
2020/12/01 04:18:02;;;;;;;5.88;1.58;;;;;;;5.10;61.96;100803.19;7993048;28;20049;-63
2020/12/01 04:21:52;;;;;;;3.35;0.85;;;;;;;5.11;62.12;100797.06;8022974;28;20024;-62
2020/12/01 04:25:43;;;;;;;2.00;1.10;;;;;;;5.14;62.28;100799.53;8021967;28;20537;-62
2020/12/01 04:29:33;;;;;;;2.75;1.10;;;;;;;5.17;62.03;100796.81;8024719;28;20032;-62
2020/12/01 04:33:24;;;;;;;5.57;0.90;;;;;;;5.19;62.14;100792.38;8024938;28;20029;-62
2020/12/01 04:37:15;;;;;;;2.38;1.10;;;;;;;5.20;62.10;100796.69;8024660;28;20078;-62
2020/12/01 04:41:07;;;;;;;3.95;0.90;;;;;;;5.24;62.09;100794.78;8025314;28;20121;-63
2020/12/01 04:45:09;;;;;;;4.75;1.42;;;;;;;5.24;61.94;100798.25;8042582;28;20074;-62
2020/12/01 04:49:03;;;;;;;5.25;1.25;;;;;;;5.24;62.16;100793.03;8024469;28;20048;-63
2020/12/01 04:53:09;;;;;;;4.20;1.58;;;;;;;5.25;62.05;100796.47;8024662;28;20041;-62
2020/12/01 04:57:24;;;;;;;3.40;1.05;;;;;;;5.25;61.99;100796.47;8042325;28;20079;-62
2020/12/01 05:01:32;;;;;;;2.50;1.10;;;;;;;5.23;62.03;100809.56;8024523;28;20068;-62
2020/12/01 05:05:38;;;;;;;1.92;1.10;;;;;;;5.29;61.80;100809.31;8042268;28;20062;-62
2020/12/01 05:09:56;;;;;;;3.13;1.25;;;;;;;5.30;62.06;100810.16;8024711;28;20047;-62
2020/12/01 05:13:53;;;;;;;2.58;1.38;;;;;;;5.31;61.87;100804.03;8020445;28;20739;-62
2020/12/01 05:17:56;;;;;;;9.57;2.33;;;;;;;5.34;61.93;100811.69;8023544;28;20171;-62
2020/12/01 05:21:46;;;;;;;7.03;2.20;;;;;;;5.32;61.72;100810.91;7994146;28;20048;-62
2020/12/01 05:25:37;;;;;;;6.13;2.88;;;;;;;5.34;62.10;100817.75;7991560;28;20097;-62
2020/12/01 05:29:28;;;;;;;4.63;2.17;;;;;;;5.35;61.71;100824.66;7991977;28;20095;-62
2020/12/01 05:33:30;;;;;;;5.00;2.60;;;;;;;5.35;61.83;100818.59;8009085;28;20631;-63
2020/12/01 05:37:20;;;;;;;10.15;3.25;;;;;;;5.35;61.81;100818.59;7991419;28;20094;-62
2020/12/01 05:41:20;;;;;;;5.63;2.88;;;;;;;5.39;61.88;100822.75;7991478;28;20037;-63
2020/12/01 05:45:28;;;;;;;7.43;3.05;;;;;;;5.39;61.94;100825.38;8008724;28;20025;-62
2020/12/01 05:49:49;;;;;;;9.77;3.75;;;;;;;5.37;62.24;100833.25;7990647;28;20047;-62
2020/12/01 05:53:40;;;;;;;8.35;3.53;;;;;;;5.37;62.20;100837.59;7966456;28;20045;-63
2020/12/01 05:57:31;;;;;;;4.88;3.00;;;;;;;5.35;61.81;100829.03;7973991;28;20033;-63
2020/12/01 06:01:21;;;;;;;11.05;3.80;;;;;;;5.38;61.98;100823.66;7974267;28;20036;-62
2020/12/01 06:05:16;;;;;;;7.85;3.05;;;;;;;5.37;61.83;100830.63;7990229;28;20307;-62
2020/12/01 06:09:19;;;;;;;7.38;3.10;;;;;;;5.37;61.95;100833.25;7974061;28;20044;-62
2020/12/01 06:13:33;;;;;;;12.70;3.83;;;;;;;5.36;62.11;100839.34;7990660;28;20151;-62
2020/12/01 06:17:54;;;;;;;7.18;2.58;;;;;;;5.35;62.08;100840.28;7990232;28;20037;-62
2020/12/01 06:22:06;;;;;;;8.32;2.70;;;;;;;5.34;62.25;100841.19;8018366;28;20036;-62
2020/12/01 06:26:26;;;;;;;9.02;3.13;;;;;;;5.35;62.16;100845.50;8004933;28;20044;-62
2020/12/01 06:30:46;;;;;;;8.30;3.00;;;;;;;5.33;62.31;100839.50;7988928;28;20066;-62
2020/12/01 06:35:14;;;;;;;11.18;3.35;;;;;;;5.35;62.03;100849.88;8037704;28;20058;-62
2020/12/01 06:39:28;;;;;;;6.32;2.95;;;;;;;5.35;62.17;100850.72;8020629;28;20067;-64
2020/12/01 06:43:31;;;;;;;11.05;3.15;;;;;;;5.34;62.42;100855.97;8021249;28;20059;-64
2020/12/01 06:47:28;;;;;;;9.88;3.38;;;;;;;5.35;62.40;100866.34;8020674;28;20093;-64
2020/12/01 06:51:19;;;;;;;9.85;3.17;;;;;;;5.37;62.27;100859.28;8004316;28;20032;-62
2020/12/01 06:55:32;;;;;;;11.05;3.85;;;;;;;5.39;62.33;100862.69;8020809;28;20459;-61
2020/12/01 06:59:23;;;;;;;11.13;3.80;;;;;;;5.37;62.07;100855.84;8020086;28;20147;-62
2020/12/01 07:03:22;;;;;;;10.40;4.70;;;;;;;5.43;62.39;100872.06;8020606;28;20058;-62
2020/12/01 07:07:28;;;;;;;15.20;5.18;;;;;;;5.46;62.39;100879.72;8019962;28;20059;-62
2020/12/01 07:11:24;;;;;;;12.23;4.35;;;;;;;5.48;62.29;100880.50;8020847;28;20123;-62
2020/12/01 07:15:26;;;;;;;8.93;4.03;;;;;;;5.49;62.26;100882.19;8020129;28;20040;-62
2020/12/01 07:19:38;;;;;;;8.30;4.60;;;;;;;5.52;62.41;100883.81;8011182;28;20037;-62
2020/12/01 07:23:32;;;;;;;10.68;4.97;;;;;;;5.54;62.42;100887.19;7988354;28;20052;-61
2020/12/01 07:27:45;;;;;;;14.90;4.53;;;;;;;5.55;62.40;100881.94;7986389;28;20055;-61
2020/12/01 07:31:36;;;;;;;10.68;4.35;;;;;;;5.58;62.43;100879.19;7987389;28;20548;-61
2020/12/01 07:35:41;;;;;;;15.25;5.88;;;;;;;5.60;62.32;100886.94;7987722;28;20639;-61
2020/12/01 07:39:32;;;;;;;15.10;6.40;;;;;;;5.63;62.32;100889.41;7987297;28;20432;-61
2020/12/01 07:43:22;;;;;;;12.88;5.70;;;;;;;5.65;62.31;100900.59;7971309;28;20062;-61
2020/12/01 07:47:26;;;;;;;15.15;6.15;;;;;;;5.65;62.32;100903.19;7987046;28;20061;-62
2020/12/01 07:51:17;;;;;;;19.33;6.95;;;;;;;5.69;62.26;100901.28;7971490;28;20520;-61
2020/12/01 07:55:25;;;;;;;16.52;5.82;;;;;;;5.70;61.80;100910.81;7987631;28;20580;-61
2020/12/01 07:59:16;;;;;;;12.13;5.80;;;;;;;5.71;62.29;100915.97;7970955;28;20083;-61
2020/12/01 08:03:15;;;;;;;10.82;4.60;;;;;;;5.75;62.15;100921.88;7971481;28;20083;-61
2020/12/01 08:07:06;;;;;;;16.15;5.97;;;;;;;5.77;62.03;100925.25;7987380;28;20037;-61
2020/12/01 08:10:56;;;;;;;9.20;4.88;;;;;;;5.78;62.42;100927.78;7987272;28;20055;-62
2020/12/01 08:14:51;;;;;;;9.77;5.00;;;;;;;5.79;62.20;100929.50;7987461;28;20037;-62
2020/12/01 08:18:46;;;;;;;13.25;5.07;;;;;;;5.83;62.56;100928.44;7974308;28;20036;-61
2020/12/01 08:22:38;;;;;;;11.70;5.00;;;;;;;5.89;62.21;100930.75;8018438;28;20029;-61
2020/12/01 08:26:32;;;;;;;13.40;4.97;;;;;;;5.93;62.33;100934.09;8002280;28;20090;-61
2020/12/01 08:30:33;;;;;;;11.07;5.20;;;;;;;6.00;62.35;100943.31;7986789;28;20025;-61
2020/12/01 08:34:43;;;;;;;16.45;5.65;;;;;;;6.05;62.53;100947.41;7986608;28;20040;-62
2020/12/01 08:38:52;;;;;;;13.82;4.95;;;;;;;6.12;62.64;100955.78;8024458;28;20110;-62
2020/12/01 08:42:53;;;;;;;;;;;;;;;6.08;62.33;100959.44;8022897;28;20413;-62
2020/12/01 08:46:46;;;;;;;8.75;4.30;;;;;;;6.17;62.57;100964.25;8031434;28;19912;-62
2020/12/01 08:50:41;;;;;;;11.00;4.00;;;;;;;6.22;62.44;100954.47;8025802;28;20047;-62
2020/12/01 08:54:37;;;;;;;6.78;3.50;;;;;;;6.26;62.41;100960.38;8025514;28;20048;-62
2020/12/01 08:58:27;;;;;;;10.23;4.13;;;;;;;6.27;62.36;100960.28;8026155;28;20115;-61
2020/12/01 09:02:19;;;;;;;7.30;3.63;;;;;;;6.30;62.54;100961.94;8033662;28;20043;-62
2020/12/01 09:06:30;;;;;;;10.73;5.50;;;;;;;6.32;62.31;100967.91;8029023;28;20511;-62
2020/12/01 09:10:29;;;;;;;10.20;5.57;;;;;;;6.37;62.45;100965.94;8028932;28;20038;-62
2020/12/01 09:22:28;;;;;;;8.35;5.18;;;;;;;6.67;62.47;100977.53;8028568;28;20041;-63
2020/12/01 09:26:20;;;;;;;10.23;5.78;;;;;;;6.74;62.72;100975.50;8012940;28;20031;-62
2020/12/01 09:30:17;;;;;;;12.63;5.75;;;;;;;6.80;62.38;100969.97;8030751;28;20037;-62
2020/12/01 09:34:07;;;;;;;12.00;5.95;;;;;;;6.88;62.51;100979.13;8032797;28;20597;-62
2020/12/01 09:38:01;;;;;;;13.10;6.10;;;;;;;6.94;62.75;100975.34;8029804;28;20599;-62
2020/12/01 09:42:01;;;;;;;13.88;6.13;;;;;;;7.00;62.62;100986.38;8030593;28;20047;-62
2020/12/01 09:45:54;;;;;;;12.85;6.35;;;;;;;7.03;62.54;100983.59;8014703;28;20126;-62
2020/12/01 09:49:44;;;;;;;11.30;6.50;;;;;;;7.08;62.48;100985.13;8041388;28;20047;-62
2020/12/01 10:09:24;;;;;;;8.45;4.95;;;;;;;7.08;62.57;100988.59;8033618;28;20833;-62
2020/12/01 10:13:39;;;;;;;8.85;4.93;;;;;;;7.09;62.34;100992.06;8034517;28;20040;-63
2020/12/01 10:38:00;;;;;;;5.55;3.55;;;;;;;7.11;62.69;100983.22;8028984;28;20505;-62
2020/12/01 10:41:51;;;;;;;5.35;3.70;;;;;;;7.11;62.29;100988.44;8028909;28;20091;-62
2020/12/01 10:45:42;;;;;;;4.82;2.97;;;;;;;7.12;62.67;100987.53;8026291;28;20024;-63
2020/12/01 10:49:32;;;;;;;6.20;2.97;;;;;;;7.10;62.80;100984.13;8028563;28;20040;-63
2020/12/01 10:53:23;;;;;;;5.60;3.45;;;;;;;7.09;62.57;100981.59;8022535;28;20048;-63
2020/12/01 10:57:14;;;;;;;5.32;2.80;;;;;;;7.09;62.61;100984.22;8029470;28;20040;-63
2020/12/01 11:01:04;;;;;;;4.88;2.78;;;;;;;7.08;62.43;100983.38;8009847;28;20040;-63
2020/12/01 11:04:55;;;;;;;4.13;2.60;;;;;;;7.08;62.13;100988.59;8026264;28;20046;-63
2020/12/01 11:08:46;;;;;;;3.33;2.70;;;;;;;7.10;62.47;100983.28;8025410;28;20495;-63
2020/12/01 11:12:36;;;;;;;3.05;2.10;;;;;;;7.10;62.36;100994.56;8026299;28;20467;-63
2020/12/01 11:16:27;;;;;;;2.38;1.98;;;;;;;7.12;62.31;101004.97;8029060;28;20040;-63
2020/12/01 11:20:18;;;;;;;1.63;1.52;;;;;;;7.14;62.52;100997.88;8025749;28;20041;-63
2020/12/01 11:24:09;;;;;;;2.60;1.85;;;;;;;7.15;62.46;100997.81;8028731;28;20139;-63
2020/12/01 11:27:59;;;;;;;3.40;1.67;;;;;;;7.18;62.44;101009.88;8029328;28;20029;-63
2020/12/01 11:31:50;;;;;;;2.45;1.67;;;;;;;7.15;62.74;101003.03;8010255;28;20040;-63
2020/12/01 11:35:41;;;;;;;1.48;1.27;;;;;;;7.14;62.76;101003.09;7976704;28;20032;-63
2020/12/01 11:39:32;;;;;;;3.72;1.55;;;;;;;7.15;62.76;101005.66;8023500;28;20028;-63
2020/12/01 11:43:23;;;;;;;5.60;1.70;;;;;;;7.17;62.74;101008.19;8031379;28;20016;-63
2020/12/01 11:47:13;;;;;;;1.30;1.20;;;;;;;7.20;62.66;101015.88;8029129;28;20455;-63
2020/12/01 11:51:04;;;;;;;1.92;1.35;;;;;;;7.21;62.86;101015.81;8024540;28;20139;-63
2020/12/01 11:54:54;;;;;;;3.70;1.92;;;;;;;7.19;62.97;101012.41;8026385;28;20043;-64
2020/12/01 11:58:45;;;;;;;2.30;1.20;;;;;;;7.22;63.04;101017.47;8028213;28;20042;-63
2020/12/01 12:02:37;;;;;;;2.13;1.13;;;;;;;7.22;63.13;101012.25;8021945;28;20037;-63
2020/12/01 12:06:27;;;;;;;3.13;1.20;;;;;;;7.26;62.97;101012.94;8019421;28;20042;-63
2020/12/01 12:10:18;;;;;;;4.30;1.55;;;;;;;7.31;62.96;101010.94;8029013;28;20045;-63
2020/12/01 12:14:08;;;;;;;5.35;1.55;;;;;;;7.34;63.21;101016.88;8004617;28;20851;-63
2020/12/01 12:17:59;;;;;;;9.02;1.80;;;;;;;7.35;63.00;101010.72;8029953;28;20029;-63
2020/12/01 12:21:50;;;;;;;6.47;1.92;;;;;;;7.35;63.12;101002.88;8016487;28;20031;-63
2020/12/01 12:25:40;;;;;;;9.60;2.30;;;;;;;7.38;63.28;101007.13;8023256;28;20769;-63
2020/12/01 12:29:31;;;;;;;4.97;1.42;;;;;;;7.39;63.22;101008.78;8024957;28;20063;-63
2020/12/01 12:33:22;;;;;;;4.80;1.13;;;;;;;7.37;62.92;101001.06;8014743;28;20130;-63
2020/12/01 12:37:12;;;;;;;5.95;1.40;;;;;;;7.39;63.09;101009.63;8032216;28;20032;-63
2020/12/01 12:41:04;;;;;;;8.25;1.90;;;;;;;7.35;63.05;101009.88;8016811;28;20695;-62
2020/12/01 12:44:54;;;;;;;8.38;1.98;;;;;;;7.35;62.92;100999.41;8034166;28;20027;-62
2020/12/01 12:48:45;;;;;;;5.57;1.88;;;;;;;7.35;63.07;101004.63;8035408;28;20032;-62
2020/12/01 12:52:36;;;;;;;6.53;1.70;;;;;;;7.35;63.07;101008.09;8011231;28;20033;-62
2020/12/01 12:56:27;;;;;;;12.80;2.17;;;;;;;7.33;63.18;101011.72;8030071;28;20041;-62
2020/12/01 13:00:17;;;;;;;9.68;1.90;;;;;;;7.33;63.09;101012.59;8036968;28;20092;-62
2020/12/01 13:04:08;;;;;;;10.43;3.00;;;;;;;7.32;62.82;101005.66;8025795;28;20094;-62
2020/12/01 13:07:59;;;;;;;9.18;2.08;;;;;;;7.32;62.86;101021.34;8024895;28;20046;-62
2020/12/01 13:11:50;;;;;;;6.68;1.67;;;;;;;7.29;62.79;101023.25;7998900;28;20040;-62
2020/12/01 13:15:41;;;;;;;9.23;1.80;;;;;;;7.31;63.13;101019.63;8029343;28;20138;-62
2020/12/01 13:19:31;;;;;;;5.68;1.80;;;;;;;7.34;62.74;101034.34;8027452;28;20401;-62
2020/12/01 13:23:22;;;;;;;5.05;1.80;;;;;;;7.33;63.11;101023.03;8027355;28;20058;-63
2020/12/01 13:27:13;;;;;;;5.63;1.67;;;;;;;7.32;62.98;101028.31;8034759;28;20120;-63
2020/12/01 13:31:03;;;;;;;10.98;2.40;;;;;;;7.31;62.89;101034.47;8025490;28;20033;-63
2020/12/01 13:34:54;;;;;;;8.55;1.73;;;;;;;7.32;63.19;101039.63;8030781;28;20045;-63
2020/12/01 13:38:44;;;;;;;6.60;2.45;;;;;;;7.32;62.57;101044.00;8032982;28;20424;-62
2020/12/01 13:42:35;;;;;;;7.82;1.50;;;;;;;7.32;62.72;101044.84;8029036;28;20029;-62
2020/12/01 13:46:29;;;;;;;9.27;1.52;;;;;;;7.28;62.60;101043.31;8028859;28;20071;-62
2020/12/01 13:50:23;;;;;;;8.32;1.65;;;;;;;7.33;62.65;101046.56;8029021;28;20037;-62
2020/12/01 13:54:14;;;;;;;7.95;1.73;;;;;;;7.34;62.80;101052.63;8029706;28;20044;-63
2020/12/01 13:58:04;;;;;;;12.05;2.35;;;;;;;7.34;63.09;101053.44;8009309;28;20494;-66
2020/12/01 14:01:57;;;;;;;11.23;2.00;;;;;;;7.35;62.71;101056.91;8027799;28;20040;-69
2020/12/01 14:05:47;;;;;;;10.00;1.95;;;;;;;7.32;62.75;101068.38;8024435;28;20063;-63
2020/12/01 14:09:38;;;;;;;6.07;1.65;;;;;;;7.32;62.78;101072.75;8030484;28;20130;-63
2020/12/01 14:13:28;;;;;;;7.70;1.63;;;;;;;7.31;62.79;101077.13;8033505;28;20040;-63
2020/12/01 14:17:19;;;;;;;9.32;2.53;;;;;;;7.33;62.82;101077.91;8032830;28;20029;-62
2020/12/01 14:21:10;;;;;;;4.78;1.70;;;;;;;7.32;62.88;101081.44;8030111;28;20037;-63
2020/12/01 14:25:00;;;;;;;5.55;1.90;;;;;;;7.36;62.79;101087.34;8025039;28;20039;-63
2020/12/01 14:28:53;;;;;;;10.30;2.38;;;;;;;7.36;62.98;101082.13;8029244;28;20036;-63
2020/12/01 14:32:43;;;;;;;8.95;2.20;;;;;;;7.34;62.79;101081.38;8032009;28;20533;-63
2020/12/01 14:36:39;;;;;;;11.95;2.05;;;;;;;7.30;62.66;101087.69;8027010;28;20040;-63
2020/12/01 14:40:29;;;;;;;9.32;1.55;;;;;;;7.33;62.51;101084.91;8030559;28;20036;-63
2020/12/01 14:44:20;;;;;;;8.18;2.42;;;;;;;7.30;62.84;101098.13;8028785;28;20784;-63
2020/12/01 14:48:50;;;;;;;7.43;2.33;;;;;;;7.29;62.86;101096.44;8030795;28;20580;-63
2020/12/01 14:52:48;;;;;;;14.43;2.50;;;;;;;7.29;62.51;101099.03;8031026;28;20051;-62
2020/12/01 14:56:54;;;;;;;11.98;2.13;;;;;;;7.28;62.89;101107.78;8025353;28;20119;-63
2020/12/01 15:01:19;;;;;;;9.63;2.72;;;;;;;7.25;62.48;101105.34;8029529;28;20044;-63
2020/12/01 15:05:31;;;;;;;10.02;2.50;;;;;;;7.24;62.88;101116.72;8027334;28;20400;-63
2020/12/01 15:09:28;;;;;;;9.65;2.15;;;;;;;7.23;62.71;101110.63;8029447;28;20089;-63
2020/12/01 15:13:19;;;;;;;7.63;1.70;;;;;;;7.23;62.66;101121.09;8031979;28;20470;-63
2020/12/01 15:17:09;;;;;;;8.13;2.47;;;;;;;7.23;62.66;101113.25;8025766;28;20516;-63
2020/12/01 15:21:02;;;;;;;9.25;2.00;;;;;;;7.25;62.83;101124.47;8030175;28;20182;-63
2020/12/01 15:24:57;;;;;;;7.10;2.13;;;;;;;7.27;62.51;101122.63;8023306;28;20127;-62
2020/12/01 15:28:48;;;;;;;8.40;2.38;;;;;;;7.27;62.45;101124.38;8025918;28;20542;-63
2020/12/01 15:32:39;;;;;;;10.65;2.42;;;;;;;7.26;62.51;101133.13;8010342;28;20036;-62
2020/12/01 15:36:31;;;;;;;13.18;2.28;;;;;;;7.25;62.64;101131.47;8004134;28;20044;-63
2020/12/01 15:40:38;;;;;;;11.20;2.25;;;;;;;7.24;62.84;101132.38;8026586;28;20464;-63
2020/12/01 15:44:29;;;;;;;7.25;2.03;;;;;;;7.22;62.47;101145.50;8007948;28;20123;-63
2020/12/01 15:48:25;;;;;;;9.00;2.50;;;;;;;7.25;62.76;101147.16;8027003;28;20067;-63
2020/12/01 15:52:32;;;;;;;11.85;2.28;;;;;;;7.24;62.87;101146.28;8027951;28;20040;-63
2020/12/01 15:56:25;;;;;;;10.73;2.95;;;;;;;7.24;62.66;101145.44;8026079;28;20489;-64
2020/12/01 16:00:40;;;;;;;8.65;2.10;;;;;;;7.21;62.91;101148.22;8027524;28;20098;-63
2020/12/01 16:04:50;;;;;;;7.50;1.92;;;;;;;7.20;62.96;101157.81;8023617;28;20603;-63
2020/12/01 16:09:22;;;;;;;7.45;2.15;;;;;;;7.18;62.51;101158.78;8038449;28;20401;-63
2020/12/01 16:13:28;;;;;;;10.15;2.15;;;;;;;7.17;62.98;101157.13;8030110;28;20039;-63
2020/12/01 16:17:31;;;;;;;9.15;2.00;;;;;;;7.15;63.00;101156.31;8036228;28;20047;-64
2020/12/01 16:21:29;;;;;;;8.23;2.22;;;;;;;7.16;62.90;101166.72;8031688;28;20040;-63
2020/12/01 16:25:22;;;;;;;9.35;1.55;;;;;;;7.15;63.00;101162.41;8032373;28;20040;-64
2020/12/01 16:29:13;;;;;;;7.38;2.05;;;;;;;7.17;62.58;101167.56;8032823;28;20123;-63
2020/12/01 16:33:05;;;;;;;7.00;1.88;;;;;;;7.19;62.55;101169.19;8034665;28;20040;-64
2020/12/01 16:37:14;;;;;;;11.02;1.83;;;;;;;7.16;62.71;101178.94;8029917;28;20052;-63
2020/12/01 16:41:14;;;;;;;5.30;1.90;;;;;;;7.17;62.68;101173.66;8033167;28;20047;-64
2020/12/01 16:45:33;;;;;;;8.32;2.00;;;;;;;7.18;62.55;101177.94;8028531;28;20089;-63
2020/12/01 16:49:33;;;;;;;7.60;2.80;;;;;;;7.19;62.77;101195.31;8028756;28;20044;-63
2020/12/01 16:53:31;;;;;;;5.13;1.92;;;;;;;7.21;62.65;101190.03;8035272;28;20218;-64
2020/12/01 16:57:40;;;;;;;;;;;;;;;7.13;62.91;101189.53;8035466;28;20099;-64
2020/12/01 17:01:43;;;;;;;10.43;2.53;;;;;;;7.16;62.72;101197.22;8032868;28;19947;-64
2020/12/01 17:05:55;;;;;;;8.27;1.92;;;;;;;7.15;62.85;101198.97;8026936;28;20032;-63
2020/12/01 17:09:56;;;;;;;9.40;2.95;;;;;;;7.17;62.77;101207.63;8017754;28;20028;-63
2020/12/01 17:14:08;;;;;;;7.10;2.55;;;;;;;7.18;62.77;101213.66;8033999;28;20032;-63
2020/12/01 17:18:00;;;;;;;8.88;2.33;;;;;;;7.18;62.57;101211.91;8031893;28;20791;-63
2020/12/01 17:21:55;;;;;;;11.70;2.92;;;;;;;7.18;62.85;101214.50;8026876;28;20047;-63
2020/12/01 17:25:46;;;;;;;8.95;2.85;;;;;;;7.20;62.61;101224.91;8029384;28;20060;-64
2020/12/01 17:29:41;;;;;;;11.32;2.63;;;;;;;7.19;62.80;101225.81;8013337;28;20040;-63
2020/12/01 17:33:43;;;;;;;7.28;3.17;;;;;;;7.22;62.71;101236.13;8033058;28;20024;-63
2020/12/01 17:37:52;;;;;;;8.68;3.40;;;;;;;7.22;62.67;101231.75;8030825;28;20463;-63
2020/12/01 17:42:12;;;;;;;11.50;3.17;;;;;;;7.20;62.79;101241.44;8029826;28;20086;-63
2020/12/01 17:46:11;;;;;;;8.68;3.35;;;;;;;7.23;62.44;101243.03;8003785;28;20048;-62
2020/12/01 17:50:31;;;;;;;7.45;3.00;;;;;;;7.22;62.40;101249.19;8032182;28;20071;-62
2020/12/01 17:54:23;;;;;;;4.60;3.13;;;;;;;7.23;62.59;101248.25;8026664;28;20127;-63
2020/12/01 17:58:17;;;;;;;6.32;3.70;;;;;;;7.25;62.98;101257.75;8030259;28;20040;-63
2020/12/01 18:02:13;;;;;;;6.82;3.92;;;;;;;7.26;62.66;101263.78;8031662;28;20435;-62
2020/12/01 18:06:05;;;;;;;7.03;4.07;;;;;;;7.23;62.97;101258.72;8028530;28;20063;-61
2020/12/01 18:09:56;;;;;;;10.82;4.05;;;;;;;7.25;62.66;101268.22;8029102;28;20044;-63
2020/12/01 18:14:05;;;;;;;10.45;4.22;;;;;;;7.23;62.59;101271.78;8015049;28;20042;-62
2020/12/01 18:18:05;;;;;;;7.25;4.07;;;;;;;7.23;62.56;101274.41;8031396;28;20147;-62
2020/12/01 18:22:02;;;;;;;12.00;4.70;;;;;;;7.19;62.55;101278.91;8031551;28;20501;-70
2020/12/01 18:25:56;;;;;;;12.55;4.15;;;;;;;7.22;62.90;101285.75;8030515;28;20059;-69
2020/12/01 18:29:59;;;;;;;8.10;3.92;;;;;;;7.19;62.74;101294.59;8025922;28;20142;-68
2020/12/01 18:34:12;;;;;;;6.45;4.25;;;;;;;7.18;62.90;101305.97;8011000;28;20674;-70
2020/12/01 18:38:05;;;;;;;5.90;4.20;;;;;;;7.08;62.55;101282.94;8038055;28;20106;-69
2020/12/01 18:41:55;;;;;;;8.25;4.07;;;;;;;7.19;62.64;101307.66;8012536;28;20032;-71
2020/12/01 18:45:49;;;;;;;7.90;4.28;;;;;;;7.20;62.54;101308.53;8012728;28;20044;-72
2020/12/01 18:49:40;;;;;;;8.88;3.90;;;;;;;7.18;62.78;101312.94;8030419;28;20028;-68
2020/12/01 18:53:33;;;;;;;6.80;4.03;;;;;;;7.15;62.66;101313.09;8030743;28;20036;-65
2020/12/01 18:57:27;;;;;;;6.43;4.32;;;;;;;7.15;62.72;101315.72;8029200;28;20089;-68
2020/12/01 19:01:21;;;;;;;7.70;3.97;;;;;;;7.15;62.86;101321.78;8033207;28;20117;-66
2020/12/01 19:05:11;;;;;;;11.35;4.80;;;;;;;7.16;62.79;101339.16;8027033;28;20691;-67
2020/12/01 19:09:02;;;;;;;4.68;3.35;;;;;;;7.14;62.96;101345.34;8012422;28;20039;-66
2020/12/01 19:12:53;;;;;;;3.85;2.70;;;;;;;7.09;62.67;101350.81;8015653;28;20044;-66